Humahuaca, Argentina
Current Conditions -  °F | °C
As of 11:00 PM on Monday 24 Nov 2014 (Local Time) from SASJ Reporting Station
Rain Showers Rain Showers  
Wind Chill: 70°   Ceiling: 8000
Heat Index: 70°   Visibility: 5mi
Dew Point: 66°   Wind: 10mph
Humidity: 88%   Direction: 320°NW
Pressure: 29.85"   Gusts: NA
Location:  23.2°S, 65.35°W
Report Text: SASJ 250200Z 32009KT 8000 VCSH FEW020FEW040CB OVC080 21/19 Q1011 RETS
Loading
Personal Weather Stations






























Interactive Weather Map New forecast layout! Learn more

10-Day Weather Forecast

Advertisements
Track Severe Weather on mobile